sensor_id;sensor_type;location;lat;lon;timestamp;pressure;altitude;pressure_sealevel;temperature;humidity
15670;BME280;18524;45.190;5.732;2022-07-23T00:03:54;99002.44;;;31.69;30.43
15670;BME280;18524;45.190;5.732;2022-07-23T00:08:45;99002.16;;;31.65;30.54
15670;BME280;18524;45.190;5.732;2022-07-23T00:13:35;99009.38;;;31.55;30.76
15670;BME280;18524;45.190;5.732;2022-07-23T00:18:26;99019.66;;;31.48;30.67
15670;BME280;18524;45.190;5.732;2022-07-23T00:23:16;99016.38;;;31.40;30.95
15670;BME280;18524;45.190;5.732;2022-07-23T00:28:06;99017.44;;;31.34;30.89
15670;BME280;18524;45.190;5.732;2022-07-23T00:32:59;99032.34;;;31.37;31.89
15670;BME280;18524;45.190;5.732;2022-07-23T00:37:50;99029.59;;;31.27;31.13
15670;BME280;18524;45.190;5.732;2022-07-23T00:42:41;99036.53;;;31.18;32.07
15670;BME280;18524;45.190;5.732;2022-07-23T00:47:31;99058.97;;;31.13;32.15
15670;BME280;18524;45.190;5.732;2022-07-23T00:52:22;99058.66;;;31.09;31.78
15670;BME280;18524;45.190;5.732;2022-07-23T00:57:12;99061.69;;;31.13;31.99
15670;BME280;18524;45.190;5.732;2022-07-23T01:02:03;99070.31;;;31.10;32.69
15670;BME280;18524;45.190;5.732;2022-07-23T01:06:53;99059.50;;;31.10;32.75
15670;BME280;18524;45.190;5.732;2022-07-23T01:11:44;99074.81;;;30.94;33.62
15670;BME280;18524;45.190;5.732;2022-07-23T01:16:34;99064.84;;;31.00;33.79
15670;BME280;18524;45.190;5.732;2022-07-23T01:21:24;99052.03;;;30.90;34.48
15670;BME280;18524;45.190;5.732;2022-07-23T01:26:15;99062.88;;;30.90;34.96
15670;BME280;18524;45.190;5.732;2022-07-23T01:31:07;99071.81;;;30.91;34.52
15670;BME280;18524;45.190;5.732;2022-07-23T01:35:57;99078.50;;;30.83;32.89
15670;BME280;18524;45.190;5.732;2022-07-23T01:40:47;99077.03;;;30.70;32.64
15670;BME280;18524;45.190;5.732;2022-07-23T01:45:38;99068.59;;;30.67;32.77
15670;BME280;18524;45.190;5.732;2022-07-23T01:50:28;99068.03;;;30.65;32.68
15670;BME280;18524;45.190;5.732;2022-07-23T01:55:19;99046.13;;;30.66;32.96
15670;BME280;18524;45.190;5.732;2022-07-23T02:00:09;99059.66;;;30.44;33.18
15670;BME280;18524;45.190;5.732;2022-07-23T02:05:00;99070.41;;;30.34;34.34
15670;BME280;18524;45.190;5.732;2022-07-23T02:09:50;99070.84;;;30.26;34.78
15670;BME280;18524;45.190;5.732;2022-07-23T02:14:41;99064.81;;;30.19;35.11
15670;BME280;18524;45.190;5.732;2022-07-23T02:19:31;99071.88;;;30.20;34.88
15670;BME280;18524;45.190;5.732;2022-07-23T02:24:22;99067.78;;;30.17;35.11
15670;BME280;18524;45.190;5.732;2022-07-23T02:29:12;99052.16;;;30.25;37.15
15670;BME280;18524;45.190;5.732;2022-07-23T02:34:03;99060.22;;;30.20;38.22
15670;BME280;18524;45.190;5.732;2022-07-23T02:38:53;99085.66;;;30.18;39.13
15670;BME280;18524;45.190;5.732;2022-07-23T02:43:44;99082.88;;;30.13;40.76
15670;BME280;18524;45.190;5.732;2022-07-23T02:48:34;99100.91;;;30.08;40.95
15670;BME280;18524;45.190;5.732;2022-07-23T02:53:25;99099.94;;;29.97;41.29
15670;BME280;18524;45.190;5.732;2022-07-23T02:58:15;99095.03;;;29.94;40.34
15670;BME280;18524;45.190;5.732;2022-07-23T03:03:06;99104.22;;;29.93;40.33
15670;BME280;18524;45.190;5.732;2022-07-23T03:07:57;99112.50;;;30.03;39.88
15670;BME280;18524;45.190;5.732;2022-07-23T03:12:47;99117.41;;;30.06;38.81
15670;BME280;18524;45.190;5.732;2022-07-23T03:17:38;99132.06;;;30.10;39.04
15670;BME280;18524;45.190;5.732;2022-07-23T03:22:28;99127.31;;;30.01;38.55
15670;BME280;18524;45.190;5.732;2022-07-23T03:27:23;99124.84;;;29.99;38.33
15670;BME280;18524;45.190;5.732;2022-07-23T03:32:13;99122.66;;;30.13;37.62
15670;BME280;18524;45.190;5.732;2022-07-23T03:37:04;99111.81;;;30.13;37.90
15670;BME280;18524;45.190;5.732;2022-07-23T03:41:54;99118.94;;;30.19;38.15
15670;BME280;18524;45.190;5.732;2022-07-23T03:46:45;99109.69;;;30.15;38.99
15670;BME280;18524;45.190;5.732;2022-07-23T03:51:35;99111.91;;;30.01;40.07
15670;BME280;18524;45.190;5.732;2022-07-23T03:56:26;99105.91;;;29.99;40.15
15670;BME280;18524;45.190;5.732;2022-07-23T04:01:16;99109.19;;;30.01;39.64
15670;BME280;18524;45.190;5.732;2022-07-23T04:06:06;99109.63;;;29.93;39.28
15670;BME280;18524;45.190;5.732;2022-07-23T04:10:57;99147.94;;;29.85;38.54
15670;BME280;18524;45.190;5.732;2022-07-23T04:15:47;99172.69;;;29.77;38.33
15670;BME280;18524;45.190;5.732;2022-07-23T04:20:38;99175.97;;;29.79;39.36
15670;BME280;18524;45.190;5.732;2022-07-23T04:25:28;99195.22;;;29.82;40.17
15670;BME280;18524;45.190;5.732;2022-07-23T04:30:19;99210.13;;;29.85;39.88
15670;BME280;18524;45.190;5.732;2022-07-23T04:35:09;99198.50;;;29.84;42.14
15670;BME280;18524;45.190;5.732;2022-07-23T04:40:00;99198.66;;;29.78;41.69
15670;BME280;18524;45.190;5.732;2022-07-23T04:44:50;99213.25;;;29.77;42.25
15670;BME280;18524;45.190;5.732;2022-07-23T04:49:40;99223.72;;;29.56;44.31
15670;BME280;18524;45.190;5.732;2022-07-23T04:54:31;99247.31;;;29.44;43.78
15670;BME280;18524;45.190;5.732;2022-07-23T04:59:21;99253.38;;;29.51;44.34
15670;BME280;18524;45.190;5.732;2022-07-23T05:04:12;99265.28;;;29.39;43.90
15670;BME280;18524;45.190;5.732;2022-07-23T05:09:02;99270.53;;;29.17;45.81
15670;BME280;18524;45.190;5.732;2022-07-23T05:13:53;99258.50;;;29.08;50.89
15670;BME280;18524;45.190;5.732;2022-07-23T05:18:43;99232.50;;;28.78;53.66
15670;BME280;18524;45.190;5.732;2022-07-23T05:23:33;99208.25;;;28.55;53.02
15670;BME280;18524;45.190;5.732;2022-07-23T05:28:24;99217.31;;;28.49;64.23
15670;BME280;18524;45.190;5.732;2022-07-23T05:33:14;99213.19;;;28.23;57.27
15670;BME280;18524;45.190;5.732;2022-07-23T05:38:05;99208.53;;;27.83;60.15
15670;BME280;18524;45.190;5.732;2022-07-23T05:42:55;99137.44;;;27.31;62.10
15670;BME280;18524;45.190;5.732;2022-07-23T05:47:49;99204.81;;;26.83;64.38
15670;BME280;18524;45.190;5.732;2022-07-23T05:52:40;99226.28;;;26.89;65.10
15670;BME280;18524;45.190;5.732;2022-07-23T05:57:31;99198.75;;;26.87;65.87
15670;BME280;18524;45.190;5.732;2022-07-23T06:02:22;99196.34;;;26.97;68.81
15670;BME280;18524;45.190;5.732;2022-07-23T06:07:12;99187.91;;;26.94;66.08
15670;BME280;18524;45.190;5.732;2022-07-23T06:12:03;99175.19;;;27.01;66.84
15670;BME280;18524;45.190;5.732;2022-07-23T06:16:53;99179.34;;;27.15;67.65
15670;BME280;18524;45.190;5.732;2022-07-23T06:21:44;99184.88;;;27.32;66.13
15670;BME280;18524;45.190;5.732;2022-07-23T06:26:34;99180.91;;;27.46;65.78
15670;BME280;18524;45.190;5.732;2022-07-23T06:31:24;99168.88;;;27.60;64.69
15670;BME280;18524;45.190;5.732;2022-07-23T06:36:15;99174.44;;;27.65;64.72
15670;BME280;18524;45.190;5.732;2022-07-23T06:41:05;99178.88;;;27.71;60.80
15670;BME280;18524;45.190;5.732;2022-07-23T06:45:56;99170.56;;;27.73;62.78
15670;BME280;18524;45.190;5.732;2022-07-23T06:50:46;99171.44;;;28.49;59.71
15670;BME280;18524;45.190;5.732;2022-07-23T06:55:36;99181.03;;;29.59;55.40
15670;BME280;18524;45.190;5.732;2022-07-23T07:00:28;99190.72;;;30.27;53.28
15670;BME280;18524;45.190;5.732;2022-07-23T07:05:20;99202.03;;;31.11;50.21
15670;BME280;18524;45.190;5.732;2022-07-23T07:10:11;99188.66;;;31.58;48.05
15670;BME280;18524;45.190;5.732;2022-07-23T07:15:01;99193.63;;;32.03;46.09
15670;BME280;18524;45.190;5.732;2022-07-23T07:19:51;99189.81;;;32.47;44.34
15670;BME280;18524;45.190;5.732;2022-07-23T07:24:42;99188.59;;;32.80;42.21
15670;BME280;18524;45.190;5.732;2022-07-23T07:29:32;99197.31;;;32.87;41.68
15670;BME280;18524;45.190;5.732;2022-07-23T07:34:23;99204.72;;;33.27;41.77
15670;BME280;18524;45.190;5.732;2022-07-23T07:39:13;99211.88;;;33.84;41.66
15670;BME280;18524;45.190;5.732;2022-07-23T07:44:04;99218.88;;;33.80;41.73
15670;BME280;18524;45.190;5.732;2022-07-23T07:48:54;99221.09;;;33.63;41.64
15670;BME280;18524;45.190;5.732;2022-07-23T07:53:45;99221.28;;;33.15;42.44
15670;BME280;18524;45.190;5.732;2022-07-23T07:58:35;99216.47;;;32.65;43.19
15670;BME280;18524;45.190;5.732;2022-07-23T08:03:26;99219.97;;;32.50;43.85
15670;BME280;18524;45.190;5.732;2022-07-23T08:08:16;99223.22;;;33.30;43.50
15670;BME280;18524;45.190;5.732;2022-07-23T08:13:07;99223.53;;;33.64;41.05
15670;BME280;18524;45.190;5.732;2022-07-23T08:17:57;99228.16;;;33.74;40.51
15670;BME280;18524;45.190;5.732;2022-07-23T08:27:48;99225.16;;;33.65;40.44
15670;BME280;18524;45.190;5.732;2022-07-23T08:33:04;99227.88;;;34.01;38.50
15670;BME280;18524;45.190;5.732;2022-07-23T08:37:59;99222.34;;;34.46;37.72
15670;BME280;18524;45.190;5.732;2022-07-23T08:42:50;99223.75;;;34.29;38.06
15670;BME280;18524;45.190;5.732;2022-07-23T08:47:41;99220.44;;;34.47;38.28
15670;BME280;18524;45.190;5.732;2022-07-23T08:52:31;99232.00;;;34.88;37.13
15670;BME280;18524;45.190;5.732;2022-07-23T08:57:23;99224.81;;;35.07;36.32
15670;BME280;18524;45.190;5.732;2022-07-23T09:02:13;99209.91;;;35.39;36.06
15670;BME280;18524;45.190;5.732;2022-07-23T09:07:04;99221.22;;;35.56;35.35
15670;BME280;18524;45.190;5.732;2022-07-23T09:12:05;99226.28;;;35.39;35.87
15670;BME280;18524;45.190;5.732;2022-07-23T09:16:55;99224.19;;;35.60;35.77
15670;BME280;18524;45.190;5.732;2022-07-23T09:21:46;99210.53;;;35.94;35.05
15670;BME280;18524;45.190;5.732;2022-07-23T09:26:47;99215.34;;;36.02;34.46
15670;BME280;18524;45.190;5.732;2022-07-23T09:36:39;99211.81;;;36.97;32.41
15670;BME280;18524;45.190;5.732;2022-07-23T09:41:42;99211.53;;;36.75;32.69
15670;BME280;18524;45.190;5.732;2022-07-23T09:46:33;99209.28;;;37.01;32.44
15670;BME280;18524;45.190;5.732;2022-07-23T09:51:24;99211.66;;;36.88;32.62
15670;BME280;18524;45.190;5.732;2022-07-23T09:56:17;99222.81;;;36.68;32.41
15670;BME280;18524;45.190;5.732;2022-07-23T10:01:09;99207.13;;;36.79;32.66
15670;BME280;18524;45.190;5.732;2022-07-23T10:06:00;99201.47;;;36.70;32.38
15670;BME280;18524;45.190;5.732;2022-07-23T10:10:51;99203.81;;;37.01;31.47
15670;BME280;18524;45.190;5.732;2022-07-23T10:15:44;99211.09;;;37.62;30.72
15670;BME280;18524;45.190;5.732;2022-07-23T10:20:34;99197.47;;;37.89;30.15
15670;BME280;18524;45.190;5.732;2022-07-23T10:25:39;99207.09;;;37.73;30.88
15670;BME280;18524;45.190;5.732;2022-07-23T10:36:01;99195.25;;;36.46;31.67
15670;BME280;18524;45.190;5.732;2022-07-23T10:45:49;99201.41;;;35.75;32.71
15670;BME280;18524;45.190;5.732;2022-07-23T10:50:40;99181.16;;;36.33;31.57
15670;BME280;18524;45.190;5.732;2022-07-23T11:00:23;99194.00;;;37.18;30.37
15670;BME280;18524;45.190;5.732;2022-07-23T11:05:16;99193.34;;;37.59;30.07
15670;BME280;18524;45.190;5.732;2022-07-23T11:10:38;99179.81;;;37.49;29.56
15670;BME280;18524;45.190;5.732;2022-07-23T11:15:28;99196.25;;;37.49;29.96
15670;BME280;18524;45.190;5.732;2022-07-23T11:20:23;99198.44;;;37.98;29.79
15670;BME280;18524;45.190;5.732;2022-07-23T11:25:29;99179.59;;;38.38;28.81
15670;BME280;18524;45.190;5.732;2022-07-23T11:35:27;99169.88;;;38.32;28.81
15670;BME280;18524;45.190;5.732;2022-07-23T11:40:18;99172.78;;;37.94;29.17
15670;BME280;18524;45.190;5.732;2022-07-23T11:45:09;99160.19;;;38.21;29.24
15670;BME280;18524;45.190;5.732;2022-07-23T11:50:02;99154.06;;;38.78;28.07
15670;BME280;18524;45.190;5.732;2022-07-23T11:54:55;99153.31;;;38.87;27.66
15670;BME280;18524;45.190;5.732;2022-07-23T11:59:50;99152.31;;;38.33;28.68
15670;BME280;18524;45.190;5.732;2022-07-23T12:04:43;99151.47;;;38.46;28.68
15670;BME280;18524;45.190;5.732;2022-07-23T12:09:34;99148.19;;;38.58;28.45
15670;BME280;18524;45.190;5.732;2022-07-23T12:14:25;99146.88;;;38.55;28.03
15670;BME280;18524;45.190;5.732;2022-07-23T12:19:15;99140.38;;;38.51;28.57
15670;BME280;18524;45.190;5.732;2022-07-23T12:24:06;99136.75;;;38.92;27.79
15670;BME280;18524;45.190;5.732;2022-07-23T12:28:57;99134.00;;;38.92;27.88
15670;BME280;18524;45.190;5.732;2022-07-23T12:33:47;99123.84;;;39.37;27.36
15670;BME280;18524;45.190;5.732;2022-07-23T12:38:48;99135.50;;;39.65;27.13
15670;BME280;18524;45.190;5.732;2022-07-23T12:43:43;99125.34;;;39.65;27.10
15670;BME280;18524;45.190;5.732;2022-07-23T12:48:51;99116.06;;;39.84;26.70
15670;BME280;18524;45.190;5.732;2022-07-23T12:58:45;99115.56;;;39.51;26.87
15670;BME280;18524;45.190;5.732;2022-07-23T13:03:40;99112.63;;;40.18;26.09
15670;BME280;18524;45.190;5.732;2022-07-23T13:08:32;99090.44;;;40.06;26.47
15670;BME280;18524;45.190;5.732;2022-07-23T13:13:26;99108.47;;;39.50;26.72
15670;BME280;18524;45.190;5.732;2022-07-23T13:18:17;99104.31;;;38.94;27.41
15670;BME280;18524;45.190;5.732;2022-07-23T13:23:08;99098.03;;;38.71;27.85
15670;BME280;18524;45.190;5.732;2022-07-23T13:27:59;99092.53;;;38.57;28.11
15670;BME280;18524;45.190;5.732;2022-07-23T13:32:49;99088.50;;;38.91;28.35
15670;BME280;18524;45.190;5.732;2022-07-23T13:37:40;99105.91;;;38.23;28.70
15670;BME280;18524;45.190;5.732;2022-07-23T13:42:30;99091.28;;;37.86;29.39
15670;BME280;18524;45.190;5.732;2022-07-23T13:47:20;99088.25;;;38.01;29.22
15670;BME280;18524;45.190;5.732;2022-07-23T13:52:11;99083.78;;;38.05;29.09
15670;BME280;18524;45.190;5.732;2022-07-23T13:57:02;99097.06;;;37.71;29.54
15670;BME280;18524;45.190;5.732;2022-07-23T14:01:53;99091.47;;;37.62;29.71
15670;BME280;18524;45.190;5.732;2022-07-23T14:06:43;99088.59;;;37.53;30.02
15670;BME280;18524;45.190;5.732;2022-07-23T14:11:34;99099.13;;;37.33;30.26
15670;BME280;18524;45.190;5.732;2022-07-23T14:16:24;99083.13;;;36.88;31.04
15670;BME280;18524;45.190;5.732;2022-07-23T14:21:14;99083.03;;;36.75;31.07
15670;BME280;18524;45.190;5.732;2022-07-23T14:26:05;99081.94;;;36.57;31.46
15670;BME280;18524;45.190;5.732;2022-07-23T14:30:55;99070.63;;;36.63;31.56
15670;BME280;18524;45.190;5.732;2022-07-23T14:35:46;99070.78;;;36.53;32.36
15670;BME280;18524;45.190;5.732;2022-07-23T14:40:37;99062.69;;;36.24;32.30
15670;BME280;18524;45.190;5.732;2022-07-23T14:45:27;99044.81;;;36.13;32.34
15670;BME280;18524;45.190;5.732;2022-07-23T14:50:20;99050.50;;;36.17;32.45
15670;BME280;18524;45.190;5.732;2022-07-23T14:55:10;99068.72;;;35.79;33.36
15670;BME280;18524;45.190;5.732;2022-07-23T15:00:01;99067.44;;;35.71;33.72
15670;BME280;18524;45.190;5.732;2022-07-23T15:04:51;99068.63;;;35.36;33.91
15670;BME280;18524;45.190;5.732;2022-07-23T15:09:42;99076.94;;;35.16;33.84
15670;BME280;18524;45.190;5.732;2022-07-23T15:14:32;99068.56;;;35.07;34.08
15670;BME280;18524;45.190;5.732;2022-07-23T15:19:23;99072.94;;;34.69;34.73
15670;BME280;18524;45.190;5.732;2022-07-23T15:24:13;99088.66;;;34.77;34.51
15670;BME280;18524;45.190;5.732;2022-07-23T15:29:04;99065.84;;;34.68;34.92
15670;BME280;18524;45.190;5.732;2022-07-23T15:33:56;99074.63;;;34.60;34.72
15670;BME280;18524;45.190;5.732;2022-07-23T15:38:47;99074.72;;;34.44;34.86
15670;BME280;18524;45.190;5.732;2022-07-23T15:43:37;99064.28;;;34.57;34.90
15670;BME280;18524;45.190;5.732;2022-07-23T15:48:28;99074.22;;;34.37;34.82
15670;BME280;18524;45.190;5.732;2022-07-23T15:53:18;99070.72;;;34.16;35.22
15670;BME280;18524;45.190;5.732;2022-07-23T15:58:10;99076.75;;;34.08;35.54
15670;BME280;18524;45.190;5.732;2022-07-23T16:03:00;99077.31;;;34.05;35.40
15670;BME280;18524;45.190;5.732;2022-07-23T16:07:50;99076.31;;;33.91;35.89
15670;BME280;18524;45.190;5.732;2022-07-23T16:12:41;99067.59;;;33.89;35.47
15670;BME280;18524;45.190;5.732;2022-07-23T16:17:31;99071.69;;;33.76;35.53
15670;BME280;18524;45.190;5.732;2022-07-23T16:22:21;99068.94;;;33.81;35.31
15670;BME280;18524;45.190;5.732;2022-07-23T16:27:12;99079.28;;;33.79;35.39
15670;BME280;18524;45.190;5.732;2022-07-23T16:32:02;99077.91;;;33.82;34.99
15670;BME280;18524;45.190;5.732;2022-07-23T16:36:53;99069.28;;;33.60;35.82
15670;BME280;18524;45.190;5.732;2022-07-23T16:41:43;99086.94;;;33.72;35.85
15670;BME280;18524;45.190;5.732;2022-07-23T16:46:34;99087.47;;;33.74;35.66
15670;BME280;18524;45.190;5.732;2022-07-23T16:51:24;99094.06;;;33.58;36.18
15670;BME280;18524;45.190;5.732;2022-07-23T16:56:15;99083.19;;;33.48;36.64
15670;BME280;18524;45.190;5.732;2022-07-23T17:01:05;99100.31;;;33.38;37.23
15670;BME280;18524;45.190;5.732;2022-07-23T17:05:56;99088.63;;;33.17;37.23
15670;BME280;18524;45.190;5.732;2022-07-23T17:10:47;99094.63;;;33.14;37.21
15670;BME280;18524;45.190;5.732;2022-07-23T17:15:37;99098.41;;;33.13;37.36
15670;BME280;18524;45.190;5.732;2022-07-23T17:20:27;99093.78;;;32.88;37.23
15670;BME280;18524;45.190;5.732;2022-07-23T17:25:18;99105.41;;;32.74;37.34
15670;BME280;18524;45.190;5.732;2022-07-23T17:30:10;99100.50;;;32.71;37.53
15670;BME280;18524;45.190;5.732;2022-07-23T17:35:01;99112.97;;;32.61;37.58
15670;BME280;18524;45.190;5.732;2022-07-23T17:39:52;99094.78;;;32.52;37.45
15670;BME280;18524;45.190;5.732;2022-07-23T17:44:42;99105.09;;;32.50;37.76
15670;BME280;18524;45.190;5.732;2022-07-23T17:49:33;99110.50;;;32.40;37.42
15670;BME280;18524;45.190;5.732;2022-07-23T17:54:23;99112.28;;;32.24;37.70
15670;BME280;18524;45.190;5.732;2022-07-23T17:59:15;99117.56;;;31.93;37.75
15670;BME280;18524;45.190;5.732;2022-07-23T18:04:06;99118.13;;;31.95;37.79
15670;BME280;18524;45.190;5.732;2022-07-23T18:08:56;99132.81;;;31.99;38.05
15670;BME280;18524;45.190;5.732;2022-07-23T18:13:47;99131.03;;;31.73;38.06
15670;BME280;18524;45.190;5.732;2022-07-23T18:18:37;99130.41;;;31.66;38.87
15670;BME280;18524;45.190;5.732;2022-07-23T18:23:28;99153.91;;;31.55;38.17
15670;BME280;18524;45.190;5.732;2022-07-23T18:28:18;99159.91;;;31.57;37.82
15670;BME280;18524;45.190;5.732;2022-07-23T18:33:08;99163.34;;;31.48;38.13
15670;BME280;18524;45.190;5.732;2022-07-23T18:37:59;99166.06;;;31.48;38.18
15670;BME280;18524;45.190;5.732;2022-07-23T18:42:49;99175.81;;;31.44;38.63
15670;BME280;18524;45.190;5.732;2022-07-23T18:47:40;99182.50;;;31.36;38.08
15670;BME280;18524;45.190;5.732;2022-07-23T18:52:31;99177.19;;;31.19;38.67
15670;BME280;18524;45.190;5.732;2022-07-23T18:57:21;99181.69;;;31.08;38.78
15670;BME280;18524;45.190;5.732;2022-07-23T19:02:12;99193.25;;;30.99;39.92
15670;BME280;18524;45.190;5.732;2022-07-23T19:07:04;99198.19;;;31.07;38.93
15670;BME280;18524;45.190;5.732;2022-07-23T19:11:54;99202.09;;;30.89;39.50
15670;BME280;18524;45.190;5.732;2022-07-23T19:16:45;99207.94;;;30.81;40.78
15670;BME280;18524;45.190;5.732;2022-07-23T19:21:35;99215.56;;;30.84;39.04
15670;BME280;18524;45.190;5.732;2022-07-23T19:26:26;99204.56;;;30.69;39.80
15670;BME280;18524;45.190;5.732;2022-07-23T19:31:16;99219.03;;;30.58;39.63
15670;BME280;18524;45.190;5.732;2022-07-23T19:36:08;99223.56;;;30.52;40.12
15670;BME280;18524;45.190;5.732;2022-07-23T19:40:59;99238.97;;;30.52;39.43
15670;BME280;18524;45.190;5.732;2022-07-23T19:45:49;99249.34;;;30.38;40.18
15670;BME280;18524;45.190;5.732;2022-07-23T19:50:39;99255.81;;;30.37;40.09
15670;BME280;18524;45.190;5.732;2022-07-23T19:55:30;99252.72;;;30.28;40.08
15670;BME280;18524;45.190;5.732;2022-07-23T20:00:20;99276.19;;;30.23;41.56
15670;BME280;18524;45.190;5.732;2022-07-23T20:05:12;99294.38;;;30.10;40.92
15670;BME280;18524;45.190;5.732;2022-07-23T20:10:04;99292.66;;;30.04;40.84
15670;BME280;18524;45.190;5.732;2022-07-23T20:14:55;99288.41;;;30.08;40.49
15670;BME280;18524;45.190;5.732;2022-07-23T20:19:46;99300.94;;;29.98;42.11
15670;BME280;18524;45.190;5.732;2022-07-23T20:24:36;99317.00;;;29.87;41.32
15670;BME280;18524;45.190;5.732;2022-07-23T20:29:26;99323.88;;;29.95;40.58
15670;BME280;18524;45.190;5.732;2022-07-23T20:34:17;99323.22;;;29.88;40.92
15670;BME280;18524;45.190;5.732;2022-07-23T20:39:08;99326.91;;;29.82;40.69
15670;BME280;18524;45.190;5.732;2022-07-23T20:43:59;99331.16;;;29.78;41.39
15670;BME280;18524;45.190;5.732;2022-07-23T20:48:50;99329.31;;;29.67;41.47
15670;BME280;18524;45.190;5.732;2022-07-23T20:53:40;99334.81;;;29.55;41.35
15670;BME280;18524;45.190;5.732;2022-07-23T20:58:30;99328.09;;;29.58;42.04
15670;BME280;18524;45.190;5.732;2022-07-23T21:03:21;99326.94;;;29.53;42.29
15670;BME280;18524;45.190;5.732;2022-07-23T21:08:12;99323.50;;;29.58;41.37
15670;BME280;18524;45.190;5.732;2022-07-23T21:13:02;99331.84;;;29.56;41.83
15670;BME280;18524;45.190;5.732;2022-07-23T21:17:53;99337.19;;;29.40;41.45
15670;BME280;18524;45.190;5.732;2022-07-23T21:22:45;99336.25;;;29.46;41.38
15670;BME280;18524;45.190;5.732;2022-07-23T21:27:36;99334.38;;;29.46;41.32
15670;BME280;18524;45.190;5.732;2022-07-23T21:32:26;99334.38;;;29.35;43.59
15670;BME280;18524;45.190;5.732;2022-07-23T21:37:16;99341.19;;;29.37;42.55
15670;BME280;18524;45.190;5.732;2022-07-23T21:42:07;99347.69;;;29.24;42.32
15670;BME280;18524;45.190;5.732;2022-07-23T21:46:57;99352.22;;;29.07;43.50
15670;BME280;18524;45.190;5.732;2022-07-23T21:51:48;99352.22;;;28.95;44.40
15670;BME280;18524;45.190;5.732;2022-07-23T21:56:38;99347.53;;;28.91;44.80
15670;BME280;18524;45.190;5.732;2022-07-23T22:01:29;99341.53;;;28.77;44.40
15670;BME280;18524;45.190;5.732;2022-07-23T22:06:19;99342.16;;;28.68;44.98
15670;BME280;18524;45.190;5.732;2022-07-23T22:11:10;99351.19;;;28.73;45.71
15670;BME280;18524;45.190;5.732;2022-07-23T22:16:00;99358.81;;;28.64;44.81
15670;BME280;18524;45.190;5.732;2022-07-23T22:20:51;99365.59;;;28.55;44.61
15670;BME280;18524;45.190;5.732;2022-07-23T22:25:43;99365.84;;;28.54;45.45
15670;BME280;18524;45.190;5.732;2022-07-23T22:30:34;99369.47;;;28.48;45.51
15670;BME280;18524;45.190;5.732;2022-07-23T22:35:24;99367.59;;;28.37;45.74
15670;BME280;18524;45.190;5.732;2022-07-23T22:40:16;99377.13;;;28.27;46.20
15670;BME280;18524;45.190;5.732;2022-07-23T22:45:07;99372.31;;;28.29;45.05
15670;BME280;18524;45.190;5.732;2022-07-23T22:49:58;99369.88;;;28.21;46.19
15670;BME280;18524;45.190;5.732;2022-07-23T22:54:48;99366.66;;;28.31;44.64
15670;BME280;18524;45.190;5.732;2022-07-23T22:59:38;99377.13;;;28.27;46.03
15670;BME280;18524;45.190;5.732;2022-07-23T23:04:29;99373.16;;;28.12;45.42
15670;BME280;18524;45.190;5.732;2022-07-23T23:09:20;99371.75;;;28.09;46.35
15670;BME280;18524;45.190;5.732;2022-07-23T23:14:10;99365.66;;;28.14;46.61
15670;BME280;18524;45.190;5.732;2022-07-23T23:19:01;99378.31;;;28.01;45.77
15670;BME280;18524;45.190;5.732;2022-07-23T23:23:51;99372.75;;;27.85;45.70
15670;BME280;18524;45.190;5.732;2022-07-23T23:28:42;99377.69;;;27.88;46.78
15670;BME280;18524;45.190;5.732;2022-07-23T23:33:34;99381.28;;;27.82;46.48
15670;BME280;18524;45.190;5.732;2022-07-23T23:38:24;99378.00;;;27.80;47.05
15670;BME280;18524;45.190;5.732;2022-07-23T23:43:15;99378.47;;;27.77;45.80
15670;BME280;18524;45.190;5.732;2022-07-23T23:48:08;99374.72;;;27.78;48.50
15670;BME280;18524;45.190;5.732;2022-07-23T23:52:59;99373.75;;;27.72;46.26
15670;BME280;18524;45.190;5.732;2022-07-23T23:57:49;99377.44;;;27.59;47.26
